sensor_id;sensor_type;location;lat;lon;timestamp;pressure;altitude;pressure_sealevel;temperature;humidity
56558;BME280;43358;50.356;12.456;2022-10-16T00:00:49;95466;;;13.8;98.8
56558;BME280;43358;50.356;12.456;2022-10-16T00:01:51;95472;;;13.8;98.8
56558;BME280;43358;50.356;12.456;2022-10-16T00:02:53;95469;;;13.8;98.8
56558;BME280;43358;50.356;12.456;2022-10-16T00:03:56;95467;;;13.8;98.8
56558;BME280;43358;50.356;12.456;2022-10-16T00:04:59;95468;;;13.8;98.8
56558;BME280;43358;50.356;12.456;2022-10-16T00:06:01;95463;;;13.8;98.8
56558;BME280;43358;50.356;12.456;2022-10-16T00:07:03;95463;;;13.8;98.8
56558;BME280;43358;50.356;12.456;2022-10-16T00:08:05;95462;;;13.8;98.8
56558;BME280;43358;50.356;12.456;2022-10-16T00:09:07;95459;;;13.8;98.8
56558;BME280;43358;50.356;12.456;2022-10-16T00:11:13;95457;;;13.8;98.8
56558;BME280;43358;50.356;12.456;2022-10-16T00:12:15;95458;;;13.8;98.8
56558;BME280;43358;50.356;12.456;2022-10-16T00:13:17;95458;;;13.8;98.8
56558;BME280;43358;50.356;12.456;2022-10-16T00:14:19;95456;;;13.8;98.8
56558;BME280;43358;50.356;12.456;2022-10-16T00:15:21;95460;;;13.8;98.8
56558;BME280;43358;50.356;12.456;2022-10-16T00:16:23;95459;;;13.8;98.8
56558;BME280;43358;50.356;12.456;2022-10-16T00:17:25;95457;;;13.9;98.8
56558;BME280;43358;50.356;12.456;2022-10-16T00:18:27;95459;;;13.8;98.8
56558;BME280;43358;50.356;12.456;2022-10-16T00:19:29;95461;;;13.8;98.8
56558;BME280;43358;50.356;12.456;2022-10-16T00:20:33;95461;;;13.8;98.8
56558;BME280;43358;50.356;12.456;2022-10-16T00:21:35;95469;;;13.8;98.8
56558;BME280;43358;50.356;12.456;2022-10-16T00:22:38;95473;;;13.8;98.8
56558;BME280;43358;50.356;12.456;2022-10-16T00:23:40;95467;;;13.8;98.8
56558;BME280;43358;50.356;12.456;2022-10-16T00:24:42;95470;;;13.8;98.8
56558;BME280;43358;50.356;12.456;2022-10-16T00:25:44;95477;;;13.8;98.8
56558;BME280;43358;50.356;12.456;2022-10-16T00:26:49;95479;;;13.8;98.8
56558;BME280;43358;50.356;12.456;2022-10-16T00:27:49;95481;;;13.8;98.8
56558;BME280;43358;50.356;12.456;2022-10-16T00:28:51;95482;;;13.8;98.8
56558;BME280;43358;50.356;12.456;2022-10-16T00:29:53;95481;;;13.8;98.8
56558;BME280;43358;50.356;12.456;2022-10-16T00:30:56;95484;;;13.8;98.8
56558;BME280;43358;50.356;12.456;2022-10-16T00:31:59;95488;;;13.7;98.8
56558;BME280;43358;50.356;12.456;2022-10-16T00:33:01;95491;;;13.7;98.8
56558;BME280;43358;50.356;12.456;2022-10-16T00:34:03;95494;;;13.7;98.8
56558;BME280;43358;50.356;12.456;2022-10-16T00:35:05;95496;;;13.7;98.8
56558;BME280;43358;50.356;12.456;2022-10-16T00:36:07;95491;;;13.8;98.8
56558;BME280;43358;50.356;12.456;2022-10-16T00:37:09;95492;;;13.8;98.8
56558;BME280;43358;50.356;12.456;2022-10-16T00:38:11;95489;;;13.8;98.8
56558;BME280;43358;50.356;12.456;2022-10-16T00:39:13;95485;;;13.8;98.8
56558;BME280;43358;50.356;12.456;2022-10-16T00:40:15;95481;;;13.8;98.8
56558;BME280;43358;50.356;12.456;2022-10-16T00:41:17;95486;;;13.8;98.8
56558;BME280;43358;50.356;12.456;2022-10-16T00:42:19;95485;;;13.9;98.8
56558;BME280;43358;50.356;12.456;2022-10-16T00:43:37;95488;;;13.9;98.8
56558;BME280;43358;50.356;12.456;2022-10-16T00:44:55;95487;;;14;98.8
56558;BME280;43358;50.356;12.456;2022-10-16T00:45:25;95491;;;13.9;98.8
56558;BME280;43358;50.356;12.456;2022-10-16T00:46:27;95489;;;13.9;98.8
56558;BME280;43358;50.356;12.456;2022-10-16T00:49:39;95485;;;13.9;98.8
56558;BME280;43358;50.356;12.456;2022-10-16T00:49:41;95481;;;13.9;98.8
56558;BME280;43358;50.356;12.456;2022-10-16T00:50:37;95487;;;13.9;98.8
56558;BME280;43358;50.356;12.456;2022-10-16T00:51:39;95490;;;13.9;98.8
56558;BME280;43358;50.356;12.456;2022-10-16T00:52:41;95487;;;13.9;98.8
56558;BME280;43358;50.356;12.456;2022-10-16T00:53:45;95484;;;13.9;98.8
56558;BME280;43358;50.356;12.456;2022-10-16T00:54:47;95490;;;13.9;98.8
56558;BME280;43358;50.356;12.456;2022-10-16T00:55:50;95486;;;13.9;98.8
56558;BME280;43358;50.356;12.456;2022-10-16T00:56:52;95490;;;13.9;98.8
56558;BME280;43358;50.356;12.456;2022-10-16T00:57:54;95491;;;13.8;98.8
56558;BME280;43358;50.356;12.456;2022-10-16T00:58:56;95493;;;13.9;98.8
56558;BME280;43358;50.356;12.456;2022-10-16T00:59:58;95492;;;13.8;98.8
56558;BME280;43358;50.356;12.456;2022-10-16T01:01:00;95492;;;13.8;98.8
56558;BME280;43358;50.356;12.456;2022-10-16T01:02:02;95494;;;13.8;98.8
56558;BME280;43358;50.356;12.456;2022-10-16T01:03:22;95493;;;13.8;98.8
56558;BME280;43358;50.356;12.456;2022-10-16T01:04:06;95495;;;13.8;98.8
56558;BME280;43358;50.356;12.456;2022-10-16T01:05:08;95491;;;13.8;98.8
56558;BME280;43358;50.356;12.456;2022-10-16T01:06:18;95496;;;13.8;98.8
56558;BME280;43358;50.356;12.456;2022-10-16T01:07:14;95495;;;13.7;98.8
56558;BME280;43358;50.356;12.456;2022-10-16T01:08:15;95494;;;13.7;98.8
56558;BME280;43358;50.356;12.456;2022-10-16T01:09:17;95488;;;13.7;98.8
56558;BME280;43358;50.356;12.456;2022-10-16T01:10:20;95486;;;13.7;98.8
56558;BME280;43358;50.356;12.456;2022-10-16T01:12:26;95482;;;13.7;98.8
56558;BME280;43358;50.356;12.456;2022-10-16T01:13:27;95485;;;13.7;98.8
56558;BME280;43358;50.356;12.456;2022-10-16T01:14:29;95482;;;13.7;98.8
56558;BME280;43358;50.356;12.456;2022-10-16T01:15:30;95481;;;13.7;98.8
56558;BME280;43358;50.356;12.456;2022-10-16T01:16:32;95484;;;13.7;98.8
56558;BME280;43358;50.356;12.456;2022-10-16T01:17:34;95484;;;13.7;98.8
56558;BME280;43358;50.356;12.456;2022-10-16T01:18:37;95484;;;13.7;98.8
56558;BME280;43358;50.356;12.456;2022-10-16T01:19:41;95489;;;13.7;98.8
56558;BME280;43358;50.356;12.456;2022-10-16T01:20:40;95490;;;13.6;98.8
56558;BME280;43358;50.356;12.456;2022-10-16T01:21:41;95491;;;13.6;98.8
56558;BME280;43358;50.356;12.456;2022-10-16T01:22:47;95491;;;13.6;98.8
56558;BME280;43358;50.356;12.456;2022-10-16T01:24:48;95489;;;13.6;98.8
56558;BME280;43358;50.356;12.456;2022-10-16T01:25:57;95495;;;13.6;98.8
56558;BME280;43358;50.356;12.456;2022-10-16T01:27:05;95494;;;13.7;98.8
56558;BME280;43358;50.356;12.456;2022-10-16T01:27:54;95495;;;13.7;98.8
56558;BME280;43358;50.356;12.456;2022-10-16T01:28:57;95495;;;13.7;98.8
56558;BME280;43358;50.356;12.456;2022-10-16T01:29:59;95496;;;13.7;98.8
56558;BME280;43358;50.356;12.456;2022-10-16T01:31:00;95491;;;13.7;98.8
56558;BME280;43358;50.356;12.456;2022-10-16T01:32:05;95491;;;13.7;98.8
56558;BME280;43358;50.356;12.456;2022-10-16T01:33:05;95488;;;13.7;98.8
56558;BME280;43358;50.356;12.456;2022-10-16T01:34:07;95491;;;13.7;98.8
56558;BME280;43358;50.356;12.456;2022-10-16T01:35:09;95490;;;13.7;98.8
56558;BME280;43358;50.356;12.456;2022-10-16T01:36:11;95488;;;13.7;98.8
56558;BME280;43358;50.356;12.456;2022-10-16T01:37:13;95489;;;13.7;98.8
56558;BME280;43358;50.356;12.456;2022-10-16T01:38:15;95491;;;13.7;98.8
56558;BME280;43358;50.356;12.456;2022-10-16T01:39:16;95495;;;13.7;98.8
56558;BME280;43358;50.356;12.456;2022-10-16T01:40:19;95494;;;13.8;98.8
56558;BME280;43358;50.356;12.456;2022-10-16T01:41:21;95496;;;13.8;98.8
56558;BME280;43358;50.356;12.456;2022-10-16T01:42:23;95501;;;13.8;98.8
56558;BME280;43358;50.356;12.456;2022-10-16T01:43:25;95498;;;13.8;98.8
56558;BME280;43358;50.356;12.456;2022-10-16T01:44:27;95497;;;13.8;98.8
56558;BME280;43358;50.356;12.456;2022-10-16T01:45:28;95502;;;13.8;98.8
56558;BME280;43358;50.356;12.456;2022-10-16T01:46:30;95507;;;13.7;98.8
56558;BME280;43358;50.356;12.456;2022-10-16T01:47:32;95508;;;13.8;98.8
56558;BME280;43358;50.356;12.456;2022-10-16T01:48:35;95509;;;13.7;98.8
56558;BME280;43358;50.356;12.456;2022-10-16T01:49:38;95510;;;13.7;98.8
56558;BME280;43358;50.356;12.456;2022-10-16T01:50:39;95505;;;13.7;98.8
56558;BME280;43358;50.356;12.456;2022-10-16T01:51:41;95506;;;13.7;98.8
56558;BME280;43358;50.356;12.456;2022-10-16T01:52:45;95507;;;13.7;98.8
56558;BME280;43358;50.356;12.456;2022-10-16T01:53:47;95506;;;13.7;98.8
56558;BME280;43358;50.356;12.456;2022-10-16T01:54:48;95509;;;13.7;98.8
56558;BME280;43358;50.356;12.456;2022-10-16T01:55:50;95509;;;13.7;98.8
56558;BME280;43358;50.356;12.456;2022-10-16T01:56:52;95504;;;13.7;98.8
56558;BME280;43358;50.356;12.456;2022-10-16T01:57:54;95509;;;13.7;98.8
56558;BME280;43358;50.356;12.456;2022-10-16T01:58:57;95507;;;13.8;98.8
56558;BME280;43358;50.356;12.456;2022-10-16T01:59:58;95505;;;13.8;98.8
56558;BME280;43358;50.356;12.456;2022-10-16T02:01:01;95505;;;13.8;98.8
56558;BME280;43358;50.356;12.456;2022-10-16T02:02:04;95506;;;13.8;98.8
56558;BME280;43358;50.356;12.456;2022-10-16T02:03:04;95505;;;13.8;98.8
56558;BME280;43358;50.356;12.456;2022-10-16T02:04:07;95505;;;13.8;98.8
56558;BME280;43358;50.356;12.456;2022-10-16T02:05:10;95507;;;13.8;98.8
56558;BME280;43358;50.356;12.456;2022-10-16T02:06:10;95505;;;13.8;98.8
56558;BME280;43358;50.356;12.456;2022-10-16T02:07:12;95504;;;13.8;98.8
56558;BME280;43358;50.356;12.456;2022-10-16T02:08:14;95508;;;13.8;98.8
56558;BME280;43358;50.356;12.456;2022-10-16T02:09:16;95509;;;13.8;98.8
56558;BME280;43358;50.356;12.456;2022-10-16T02:10:18;95513;;;13.8;98.8
56558;BME280;43358;50.356;12.456;2022-10-16T02:11:20;95513;;;13.7;98.8
56558;BME280;43358;50.356;12.456;2022-10-16T02:12:23;95513;;;13.7;98.8
56558;BME280;43358;50.356;12.456;2022-10-16T02:13:26;95511;;;13.7;98.8
56558;BME280;43358;50.356;12.456;2022-10-16T02:14:26;95511;;;13.7;98.8
56558;BME280;43358;50.356;12.456;2022-10-16T02:15:28;95512;;;13.7;98.8
56558;BME280;43358;50.356;12.456;2022-10-16T02:16:33;95515;;;13.7;98.8
56558;BME280;43358;50.356;12.456;2022-10-16T02:17:34;95510;;;13.7;98.8
56558;BME280;43358;50.356;12.456;2022-10-16T02:18:36;95508;;;13.7;98.8
56558;BME280;43358;50.356;12.456;2022-10-16T02:19:38;95509;;;13.7;98.8
56558;BME280;43358;50.356;12.456;2022-10-16T02:20:43;95503;;;13.7;98.8
56558;BME280;43358;50.356;12.456;2022-10-16T02:21:45;95506;;;13.6;98.8
56558;BME280;43358;50.356;12.456;2022-10-16T02:22:46;95506;;;13.6;98.8
56558;BME280;43358;50.356;12.456;2022-10-16T02:23:49;95508;;;13.6;98.8
56558;BME280;43358;50.356;12.456;2022-10-16T02:24:51;95506;;;13.6;98.8
56558;BME280;43358;50.356;12.456;2022-10-16T02:25:52;95502;;;13.6;98.8
56558;BME280;43358;50.356;12.456;2022-10-16T02:26:56;95506;;;13.6;98.8
56558;BME280;43358;50.356;12.456;2022-10-16T02:27:57;95509;;;13.6;98.8
56558;BME280;43358;50.356;12.456;2022-10-16T02:28:59;95508;;;13.6;98.8
56558;BME280;43358;50.356;12.456;2022-10-16T02:30:05;95511;;;13.6;98.8
56558;BME280;43358;50.356;12.456;2022-10-16T02:31:03;95511;;;13.6;98.8
56558;BME280;43358;50.356;12.456;2022-10-16T02:32:04;95507;;;13.6;98.8
56558;BME280;43358;50.356;12.456;2022-10-16T02:33:07;95506;;;13.6;98.8
56558;BME280;43358;50.356;12.456;2022-10-16T02:34:08;95510;;;13.6;98.8
56558;BME280;43358;50.356;12.456;2022-10-16T02:35:10;95513;;;13.6;98.8
56558;BME280;43358;50.356;12.456;2022-10-16T02:36:12;95513;;;13.6;98.8
56558;BME280;43358;50.356;12.456;2022-10-16T02:37:14;95513;;;13.6;98.8
56558;BME280;43358;50.356;12.456;2022-10-16T02:38:16;95515;;;13.6;98.8
56558;BME280;43358;50.356;12.456;2022-10-16T02:39:18;95516;;;13.6;98.8
56558;BME280;43358;50.356;12.456;2022-10-16T02:40:22;95518;;;13.6;98.8
56558;BME280;43358;50.356;12.456;2022-10-16T02:41:25;95516;;;13.6;98.8
56558;BME280;43358;50.356;12.456;2022-10-16T02:42:27;95517;;;13.7;98.8
56558;BME280;43358;50.356;12.456;2022-10-16T02:43:29;95516;;;13.6;98.8
56558;BME280;43358;50.356;12.456;2022-10-16T02:44:31;95520;;;13.6;98.8
56558;BME280;43358;50.356;12.456;2022-10-16T02:45:33;95523;;;13.6;98.8
56558;BME280;43358;50.356;12.456;2022-10-16T02:46:35;95527;;;13.5;98.8
56558;BME280;43358;50.356;12.456;2022-10-16T02:47:37;95527;;;13.5;98.8
56558;BME280;43358;50.356;12.456;2022-10-16T02:48:39;95526;;;13.5;98.8
56558;BME280;43358;50.356;12.456;2022-10-16T02:49:45;95526;;;13.5;98.8
56558;BME280;43358;50.356;12.456;2022-10-16T02:50:47;95526;;;13.5;98.8
56558;BME280;43358;50.356;12.456;2022-10-16T02:51:49;95524;;;13.5;98.8
56558;BME280;43358;50.356;12.456;2022-10-16T02:52:51;95523;;;13.5;98.8
56558;BME280;43358;50.356;12.456;2022-10-16T02:53:53;95523;;;13.5;98.8
56558;BME280;43358;50.356;12.456;2022-10-16T02:54:56;95524;;;13.5;98.8
56558;BME280;43358;50.356;12.456;2022-10-16T02:55:58;95527;;;13.5;98.8
56558;BME280;43358;50.356;12.456;2022-10-16T02:57:00;95526;;;13.5;98.8
56558;BME280;43358;50.356;12.456;2022-10-16T02:58:02;95524;;;13.5;98.8
56558;BME280;43358;50.356;12.456;2022-10-16T02:59:04;95530;;;13.5;98.8
56558;BME280;43358;50.356;12.456;2022-10-16T03:00:06;95535;;;13.5;98.8
56558;BME280;43358;50.356;12.456;2022-10-16T03:01:08;95538;;;13.4;98.8
56558;BME280;43358;50.356;12.456;2022-10-16T03:02:10;95537;;;13.4;98.8
56558;BME280;43358;50.356;12.456;2022-10-16T03:03:12;95538;;;13.4;98.8
56558;BME280;43358;50.356;12.456;2022-10-16T03:04:15;95536;;;13.4;98.8
56558;BME280;43358;50.356;12.456;2022-10-16T03:05:17;95538;;;13.4;98.8
56558;BME280;43358;50.356;12.456;2022-10-16T03:06:19;95538;;;13.4;98.8
56558;BME280;43358;50.356;12.456;2022-10-16T03:07:21;95540;;;13.4;98.8
56558;BME280;43358;50.356;12.456;2022-10-16T03:08:23;95543;;;13.4;98.8
56558;BME280;43358;50.356;12.456;2022-10-16T03:09:25;95541;;;13.5;98.8
56558;BME280;43358;50.356;12.456;2022-10-16T03:10:27;95537;;;13.5;98.8
56558;BME280;43358;50.356;12.456;2022-10-16T03:11:29;95539;;;13.6;98.8
56558;BME280;43358;50.356;12.456;2022-10-16T03:12:31;95537;;;13.6;98.8
56558;BME280;43358;50.356;12.456;2022-10-16T03:13:33;95538;;;13.6;98.8
56558;BME280;43358;50.356;12.456;2022-10-16T03:14:35;95540;;;13.6;98.8
56558;BME280;43358;50.356;12.456;2022-10-16T03:15:37;95537;;;13.7;98.8
56558;BME280;43358;50.356;12.456;2022-10-16T03:16:39;95538;;;13.6;98.8
56558;BME280;43358;50.356;12.456;2022-10-16T03:17:41;95540;;;13.6;98.8
56558;BME280;43358;50.356;12.456;2022-10-16T03:18:47;95543;;;13.6;98.8
56558;BME280;43358;50.356;12.456;2022-10-16T03:19:47;95542;;;13.6;98.8
56558;BME280;43358;50.356;12.456;2022-10-16T03:20:49;95541;;;13.6;98.8
56558;BME280;43358;50.356;12.456;2022-10-16T03:21:51;95540;;;13.7;98.8
56558;BME280;43358;50.356;12.456;2022-10-16T03:22:53;95544;;;13.7;98.8
56558;BME280;43358;50.356;12.456;2022-10-16T03:23:55;95543;;;13.7;98.8
56558;BME280;43358;50.356;12.456;2022-10-16T03:24:57;95547;;;13.7;98.8
56558;BME280;43358;50.356;12.456;2022-10-16T03:25:59;95546;;;13.7;98.8
56558;BME280;43358;50.356;12.456;2022-10-16T03:27:01;95547;;;13.7;98.8
56558;BME280;43358;50.356;12.456;2022-10-16T03:28:03;95547;;;13.6;98.8
56558;BME280;43358;50.356;12.456;2022-10-16T03:29:05;95551;;;13.6;98.8
56558;BME280;43358;50.356;12.456;2022-10-16T03:30:07;95551;;;13.6;98.8
56558;BME280;43358;50.356;12.456;2022-10-16T03:31:09;95551;;;13.5;98.8
56558;BME280;43358;50.356;12.456;2022-10-16T03:32:11;95550;;;13.5;98.8
56558;BME280;43358;50.356;12.456;2022-10-16T03:33:13;95553;;;13.6;98.8
56558;BME280;43358;50.356;12.456;2022-10-16T03:34:15;95549;;;13.6;98.8
56558;BME280;43358;50.356;12.456;2022-10-16T03:35:17;95553;;;13.6;98.8
56558;BME280;43358;50.356;12.456;2022-10-16T03:36:19;95553;;;13.6;98.8
56558;BME280;43358;50.356;12.456;2022-10-16T03:37:21;95555;;;13.6;98.8
56558;BME280;43358;50.356;12.456;2022-10-16T03:38:23;95558;;;13.7;98.8
56558;BME280;43358;50.356;12.456;2022-10-16T03:39:25;95561;;;13.6;98.8
56558;BME280;43358;50.356;12.456;2022-10-16T03:40:27;95562;;;13.6;98.8
56558;BME280;43358;50.356;12.456;2022-10-16T03:41:29;95562;;;13.6;98.8
56558;BME280;43358;50.356;12.456;2022-10-16T03:42:31;95565;;;13.5;98.8
56558;BME280;43358;50.356;12.456;2022-10-16T03:43:33;95562;;;13.5;98.8
56558;BME280;43358;50.356;12.456;2022-10-16T03:44:35;95569;;;13.5;98.8
56558;BME280;43358;50.356;12.456;2022-10-16T03:45:37;95567;;;13.5;98.8
56558;BME280;43358;50.356;12.456;2022-10-16T03:46:39;95571;;;13.5;98.8
56558;BME280;43358;50.356;12.456;2022-10-16T03:47:41;95569;;;13.5;98.8
56558;BME280;43358;50.356;12.456;2022-10-16T03:48:44;95574;;;13.5;98.8
56558;BME280;43358;50.356;12.456;2022-10-16T03:49:46;95573;;;13.5;98.8
56558;BME280;43358;50.356;12.456;2022-10-16T03:50:48;95579;;;13.5;98.8
56558;BME280;43358;50.356;12.456;2022-10-16T03:51:50;95576;;;13.6;98.8
56558;BME280;43358;50.356;12.456;2022-10-16T03:52:52;95576;;;13.6;98.8
56558;BME280;43358;50.356;12.456;2022-10-16T03:53:54;95579;;;13.6;98.8
56558;BME280;43358;50.356;12.456;2022-10-16T03:54:56;95578;;;13.5;98.8
56558;BME280;43358;50.356;12.456;2022-10-16T03:55:58;95580;;;13.5;98.8
56558;BME280;43358;50.356;12.456;2022-10-16T03:57:00;95577;;;13.5;98.8
56558;BME280;43358;50.356;12.456;2022-10-16T03:58:02;95580;;;13.5;98.8
56558;BME280;43358;50.356;12.456;2022-10-16T03:59:04;95583;;;13.5;98.8
56558;BME280;43358;50.356;12.456;2022-10-16T04:00:06;95584;;;13.5;98.8
56558;BME280;43358;50.356;12.456;2022-10-16T04:01:09;95583;;;13.5;98.8
56558;BME280;43358;50.356;12.456;2022-10-16T04:02:11;95582;;;13.5;98.8
56558;BME280;43358;50.356;12.456;2022-10-16T04:05:58;95587;;;13.5;98.8
56558;BME280;43358;50.356;12.456;2022-10-16T04:06:22;95593;;;13.4;98.8
56558;BME280;43358;50.356;12.456;2022-10-16T04:07:25;95595;;;13.4;98.8
56558;BME280;43358;50.356;12.456;2022-10-16T04:08:27;95594;;;13.4;98.8
56558;BME280;43358;50.356;12.456;2022-10-16T04:09:29;95594;;;13.4;98.8
56558;BME280;43358;50.356;12.456;2022-10-16T04:10:31;95590;;;13.3;98.8
56558;BME280;43358;50.356;12.456;2022-10-16T04:11:35;95590;;;13.3;98.8
56558;BME280;43358;50.356;12.456;2022-10-16T04:12:37;95588;;;13.3;98.8
56558;BME280;43358;50.356;12.456;2022-10-16T04:13:39;95591;;;13.3;98.8
56558;BME280;43358;50.356;12.456;2022-10-16T04:14:41;95586;;;13.3;98.8
56558;BME280;43358;50.356;12.456;2022-10-16T04:15:44;95587;;;13.3;98.8
56558;BME280;43358;50.356;12.456;2022-10-16T04:16:45;95586;;;13.3;98.8
56558;BME280;43358;50.356;12.456;2022-10-16T04:17:47;95580;;;13.3;98.8
56558;BME280;43358;50.356;12.456;2022-10-16T04:18:49;95576;;;13.3;98.8
56558;BME280;43358;50.356;12.456;2022-10-16T04:19:51;95575;;;13.4;98.8
56558;BME280;43358;50.356;12.456;2022-10-16T04:20:53;95574;;;13.4;98.8
56558;BME280;43358;50.356;12.456;2022-10-16T04:21:55;95576;;;13.5;98.8
56558;BME280;43358;50.356;12.456;2022-10-16T04:22:59;95580;;;13.5;98.8
56558;BME280;43358;50.356;12.456;2022-10-16T04:24:01;95582;;;13.5;98.8
56558;BME280;43358;50.356;12.456;2022-10-16T04:25:04;95583;;;13.4;98.8
56558;BME280;43358;50.356;12.456;2022-10-16T04:26:05;95581;;;13.4;98.8
56558;BME280;43358;50.356;12.456;2022-10-16T04:27:07;95581;;;13.4;98.8
56558;BME280;43358;50.356;12.456;2022-10-16T04:28:09;95583;;;13.4;98.8
56558;BME280;43358;50.356;12.456;2022-10-16T04:30:26;95587;;;13.3;98.8
56558;BME280;43358;50.356;12.456;2022-10-16T04:31:28;95589;;;13.3;98.8
56558;BME280;43358;50.356;12.456;2022-10-16T04:32:42;95588;;;13.3;98.8
56558;BME280;43358;50.356;12.456;2022-10-16T04:36:40;95594;;;13.3;98.8
56558;BME280;43358;50.356;12.456;2022-10-16T04:37:42;95598;;;13.3;98.8
56558;BME280;43358;50.356;12.456;2022-10-16T04:38:44;95596;;;13.3;98.8
56558;BME280;43358;50.356;12.456;2022-10-16T04:39:46;95594;;;13.3;98.8
56558;BME280;43358;50.356;12.456;2022-10-16T04:40:48;95595;;;13.3;98.8
56558;BME280;43358;50.356;12.456;2022-10-16T04:41:50;95597;;;13.3;98.8
56558;BME280;43358;50.356;12.456;2022-10-16T04:42:52;95595;;;13.4;98.8
56558;BME280;43358;50.356;12.456;2022-10-16T04:43:54;95598;;;13.4;98.8
56558;BME280;43358;50.356;12.456;2022-10-16T04:44:56;95603;;;13.5;98.8
56558;BME280;43358;50.356;12.456;2022-10-16T04:45:58;95602;;;13.5;98.8
56558;BME280;43358;50.356;12.456;2022-10-16T04:47:00;95601;;;13.5;98.8
56558;BME280;43358;50.356;12.456;2022-10-16T04:48:02;95601;;;13.5;98.8
56558;BME280;43358;50.356;12.456;2022-10-16T04:50:07;95603;;;13.4;98.8
56558;BME280;43358;50.356;12.456;2022-10-16T04:51:08;95598;;;13.4;98.8
56558;BME280;43358;50.356;12.456;2022-10-16T04:53:13;95592;;;13.4;98.8
56558;BME280;43358;50.356;12.456;2022-10-16T04:56:34;95597;;;13.4;98.8
56558;BME280;43358;50.356;12.456;2022-10-16T04:57:36;95600;;;13.3;98.8
56558;BME280;43358;50.356;12.456;2022-10-16T04:58:38;95600;;;13.4;98.8
56558;BME280;43358;50.356;12.456;2022-10-16T04:59:40;95600;;;13.3;98.8
56558;BME280;43358;50.356;12.456;2022-10-16T05:00:43;95604;;;13.4;98.8
56558;BME280;43358;50.356;12.456;2022-10-16T05:01:46;95601;;;13.4;98.8
56558;BME280;43358;50.356;12.456;2022-10-16T05:02:49;95603;;;13.4;98.8
56558;BME280;43358;50.356;12.456;2022-10-16T05:04:06;95601;;;13.4;98.8
56558;BME280;43358;50.356;12.456;2022-10-16T05:05:59;95602;;;13.4;98.8
56558;BME280;43358;50.356;12.456;2022-10-16T05:06:45;95601;;;13.4;98.8
56558;BME280;43358;50.356;12.456;2022-10-16T05:07:47;95604;;;13.4;98.8
56558;BME280;43358;50.356;12.456;2022-10-16T05:08:49;95607;;;13.5;98.8
56558;BME280;43358;50.356;12.456;2022-10-16T05:09:51;95606;;;13.5;98.8
56558;BME280;43358;50.356;12.456;2022-10-16T05:10:53;95609;;;13.5;98.8
56558;BME280;43358;50.356;12.456;2022-10-16T05:11:55;95610;;;13.5;98.8
56558;BME280;43358;50.356;12.456;2022-10-16T05:12:57;95612;;;13.4;98.8
56558;BME280;43358;50.356;12.456;2022-10-16T05:13:59;95615;;;13.4;98.8
56558;BME280;43358;50.356;12.456;2022-10-16T05:15:02;95613;;;13.3;98.8
56558;BME280;43358;50.356;12.456;2022-10-16T05:16:03;95614;;;13.3;98.8
56558;BME280;43358;50.356;12.456;2022-10-16T05:17:05;95618;;;13.3;98.8
56558;BME280;43358;50.356;12.456;2022-10-16T05:18:08;95619;;;13.3;98.8
56558;BME280;43358;50.356;12.456;2022-10-16T05:19:09;95620;;;13.3;98.8
56558;BME280;43358;50.356;12.456;2022-10-16T05:20:12;95616;;;13.3;98.8
56558;BME280;43358;50.356;12.456;2022-10-16T05:21:15;95621;;;13.3;98.8
56558;BME280;43358;50.356;12.456;2022-10-16T05:22:18;95621;;;13.3;98.8
56558;BME280;43358;50.356;12.456;2022-10-16T05:23:20;95627;;;13.2;98.8
56558;BME280;43358;50.356;12.456;2022-10-16T05:24:22;95628;;;13.2;98.8
56558;BME280;43358;50.356;12.456;2022-10-16T05:25:24;95628;;;13.2;98.8
56558;BME280;43358;50.356;12.456;2022-10-16T05:26:26;95627;;;13.2;98.8
56558;BME280;43358;50.356;12.456;2022-10-16T05:27:28;95629;;;13.2;98.8
56558;BME280;43358;50.356;12.456;2022-10-16T05:28:31;95626;;;13.2;98.8
56558;BME280;43358;50.356;12.456;2022-10-16T05:29:34;95626;;;13.2;98.8
56558;BME280;43358;50.356;12.456;2022-10-16T05:32:39;95625;;;13.2;98.8
56558;BME280;43358;50.356;12.456;2022-10-16T05:36:48;95634;;;13.3;98.8
56558;BME280;43358;50.356;12.456;2022-10-16T05:38:02;95633;;;13.4;98.8
56558;BME280;43358;50.356;12.456;2022-10-16T05:39:04;95636;;;13.4;98.8
56558;BME280;43358;50.356;12.456;2022-10-16T05:40:07;95638;;;13.4;98.8
56558;BME280;43358;50.356;12.456;2022-10-16T05:41:09;95640;;;13.3;98.8
56558;BME280;43358;50.356;12.456;2022-10-16T05:42:11;95640;;;13.3;98.8
56558;BME280;43358;50.356;12.456;2022-10-16T05:43:13;95643;;;13.3;98.8
56558;BME280;43358;50.356;12.456;2022-10-16T05:44:15;95642;;;13.3;98.8
56558;BME280;43358;50.356;12.456;2022-10-16T05:45:18;95645;;;13.4;98.8
56558;BME280;43358;50.356;12.456;2022-10-16T05:46:21;95645;;;13.4;98.8
56558;BME280;43358;50.356;12.456;2022-10-16T05:47:24;95647;;;13.4;98.8
56558;BME280;43358;50.356;12.456;2022-10-16T05:48:28;95647;;;13.4;98.8
56558;BME280;43358;50.356;12.456;2022-10-16T05:49:30;95653;;;13.5;98.8
56558;BME280;43358;50.356;12.456;2022-10-16T05:50:32;95649;;;13.5;98.8
56558;BME280;43358;50.356;12.456;2022-10-16T05:51:35;95652;;;13.5;98.8
56558;BME280;43358;50.356;12.456;2022-10-16T05:52:37;95651;;;13.5;98.8
56558;BME280;43358;50.356;12.456;2022-10-16T05:53:40;95649;;;13.5;98.8
56558;BME280;43358;50.356;12.456;2022-10-16T05:54:41;95652;;;13.5;98.8
56558;BME280;43358;50.356;12.456;2022-10-16T05:55:51;95654;;;13.5;98.8
56558;BME280;43358;50.356;12.456;2022-10-16T05:56:45;95657;;;13.5;98.8
56558;BME280;43358;50.356;12.456;2022-10-16T05:57:47;95657;;;13.5;98.8
56558;BME280;43358;50.356;12.456;2022-10-16T05:58:49;95658;;;13.6;98.8
56558;BME280;43358;50.356;12.456;2022-10-16T05:59:52;95655;;;13.7;98.8
56558;BME280;43358;50.356;12.456;2022-10-16T06:00:55;95659;;;13.7;98.8
56558;BME280;43358;50.356;12.456;2022-10-16T06:01:57;95656;;;13.8;98.8
56558;BME280;43358;50.356;12.456;2022-10-16T06:02:59;95656;;;13.7;98.8
56558;BME280;43358;50.356;12.456;2022-10-16T06:04:01;95653;;;13.8;98.8
56558;BME280;43358;50.356;12.456;2022-10-16T06:05:03;95658;;;13.8;98.8
56558;BME280;43358;50.356;12.456;2022-10-16T06:06:07;95657;;;13.8;98.8
56558;BME280;43358;50.356;12.456;2022-10-16T06:07:07;95660;;;13.8;98.8
56558;BME280;43358;50.356;12.456;2022-10-16T06:08:10;95659;;;13.8;98.8
56558;BME280;43358;50.356;12.456;2022-10-16T06:09:12;95665;;;13.8;98.8